Time;durP1;ratioP1;P1;durP2;ratioP2;P2;SDS_P1;SDS_P2;PMS_P1;PMS_P2;Temp;Humidity;BMP_temperature;BMP_pressure;BME280_temperature;BME280_humidity;BME280_pressure;Samples;Min_cycle;Max_cycle;Signal;HPM_P1;HPM_P2
2021/12/20 00:00:29;;;;;;;31.00;14.93;;;;;;;2.05;100.00;99141.19;4860374;29;20273;-65
2021/12/20 00:03:00;;;;;;;28.33;13.73;;;;;;;2.20;100.00;99133.66;4860217;29;20352;-65
2021/12/20 00:05:26;;;;;;;31.17;14.10;;;;;;;2.20;100.00;99138.91;4860322;29;20033;-65
2021/12/20 00:07:52;;;;;;;28.70;13.90;;;;;;;2.09;100.00;99145.19;4843486;29;20293;-65
2021/12/20 00:10:18;;;;;;;29.37;13.50;;;;;;;2.16;100.00;99143.66;4828713;29;20554;-65
2021/12/20 00:12:44;;;;;;;30.97;13.47;;;;;;;2.30;100.00;99142.38;4843813;29;20474;-65
2021/12/20 00:15:10;;;;;;;30.10;15.30;;;;;;;2.25;100.00;99146.41;4860158;29;20283;-65
2021/12/20 00:17:36;;;;;;;29.20;13.20;;;;;;;2.30;100.00;99142.38;4859075;29;20030;-65
2021/12/20 00:20:03;;;;;;;36.83;16.37;;;;;;;2.26;100.00;99130.44;4843461;29;20285;-65
2021/12/20 00:22:29;;;;;;;28.77;14.60;;;;;;;2.25;100.00;99135.88;4860235;29;20487;-65
2021/12/20 00:24:55;;;;;;;31.13;14.83;;;;;;;2.49;100.00;99133.56;4859811;29;20319;-65
2021/12/20 00:27:21;;;;;;;30.90;14.63;;;;;;;2.15;100.00;99139.38;4843717;29;20037;-65
2021/12/20 00:29:47;;;;;;;28.67;14.07;;;;;;;2.32;100.00;99121.94;4860195;29;20033;-65
2021/12/20 00:32:14;;;;;;;30.40;14.70;;;;;;;2.31;100.00;99120.28;4843436;29;20066;-65
2021/12/20 00:34:41;;;;;;;28.93;14.40;;;;;;;2.25;100.00;99122.69;4843413;29;20269;-65
2021/12/20 00:40:20;;;;;;;33.03;15.03;;;;;;;2.35;100.00;99126.13;4828326;29;20646;-65
2021/12/20 00:42:38;;;;;;;30.93;14.00;;;;;;;2.32;100.00;99123.75;4859983;29;20400;-65
2021/12/20 00:45:04;;;;;;;30.87;15.10;;;;;;;2.25;100.00;99122.69;4859822;29;20292;-65
2021/12/20 00:47:30;;;;;;;29.77;14.13;;;;;;;2.25;100.00;99123.50;4842453;29;20336;-65
2021/12/20 00:49:56;;;;;;;31.40;14.03;;;;;;;2.24;100.00;99131.56;4843190;29;20304;-64
2021/12/20 00:52:21;;;;;;;31.17;14.53;;;;;;;2.25;100.00;99123.50;4843339;29;20184;-65
2021/12/20 00:54:47;;;;;;;32.37;14.90;;;;;;;2.28;100.00;99123.22;4843101;29;20394;-65
2021/12/20 00:57:12;;;;;;;29.47;13.57;;;;;;;2.22;100.00;99126.44;4859717;29;20483;-65
2021/12/20 00:59:38;;;;;;;25.03;13.07;;;;;;;2.16;100.00;99130.50;4859566;29;20463;-65
2021/12/20 01:02:04;;;;;;;28.27;13.77;;;;;;;2.31;100.00;99130.84;4842990;29;20411;-66
2021/12/20 01:04:29;;;;;;;30.53;13.87;;;;;;;2.31;100.00;99135.31;4859350;29;20037;-65
2021/12/20 01:06:55;;;;;;;28.23;13.80;;;;;;;2.34;100.00;99133.19;4859407;29;20505;-65
2021/12/20 01:09:20;;;;;;;27.27;13.03;;;;;;;2.42;100.00;99127.22;4842823;29;20136;-65
2021/12/20 01:11:51;;;;;;;29.30;13.60;;;;;;;2.37;100.00;99146.09;4842948;29;20379;-65
2021/12/20 01:14:23;;;;;;;30.03;14.40;;;;;;;2.41;100.00;99139.56;4859480;29;20032;-65
2021/12/20 01:16:49;;;;;;;27.70;13.67;;;;;;;2.39;100.00;99152.06;4828379;29;20384;-65
2021/12/20 01:19:16;;;;;;;26.57;13.00;;;;;;;2.33;100.00;99151.78;4859512;29;20363;-65
2021/12/20 01:21:41;;;;;;;29.07;13.40;;;;;;;2.43;100.00;99145.50;4858076;29;20345;-65
2021/12/20 01:24:07;;;;;;;26.40;14.03;;;;;;;2.35;100.00;99132.22;4842739;29;20355;-65
2021/12/20 01:26:33;;;;;;;30.00;13.47;;;;;;;2.31;100.00;99122.13;4859312;29;20099;-66
2021/12/20 01:28:58;;;;;;;28.63;13.47;;;;;;;2.48;100.00;99110.78;4842779;29;20029;-65
2021/12/20 01:31:24;;;;;;;27.83;13.90;;;;;;;2.48;100.00;99108.16;4859280;29;20467;-65
2021/12/20 01:33:49;;;;;;;28.03;13.80;;;;;;;2.46;100.00;99104.81;4859139;29;20066;-65
2021/12/20 01:36:15;;;;;;;28.40;13.90;;;;;;;2.38;100.00;99102.09;4859242;29;20038;-64
2021/12/20 01:38:41;;;;;;;27.33;13.10;;;;;;;2.29;100.00;99111.72;4859301;29;20033;-64
2021/12/20 01:41:08;;;;;;;24.60;12.40;;;;;;;2.35;100.00;99099.75;4859061;29;20040;-64
2021/12/20 01:43:34;;;;;;;28.20;13.50;;;;;;;2.49;100.00;99104.53;4858858;29;20295;-65
2021/12/20 01:46:01;;;;;;;28.67;13.60;;;;;;;2.46;100.00;99110.09;4858989;29;20284;-64
2021/12/20 01:48:27;;;;;;;26.97;13.37;;;;;;;2.37;100.00;99111.81;4859165;29;20402;-65
2021/12/20 01:53:35;;;;;;;29.73;13.57;;;;;;;2.46;100.00;99112.75;4858911;29;20325;-64
2021/12/20 01:56:02;;;;;;;28.47;13.53;;;;;;;2.38;100.00;99107.38;4858947;29;20276;-65
2021/12/20 01:58:29;;;;;;;29.73;13.07;;;;;;;2.40;100.00;99098.34;4843735;29;20269;-65
2021/12/20 02:03:49;;;;;;;26.80;12.77;;;;;;;2.37;100.00;99106.53;4847577;29;20649;-65
2021/12/20 02:06:26;;;;;;;26.73;12.63;;;;;;;2.46;100.00;99104.81;4846280;29;20269;-65
2021/12/20 02:08:52;;;;;;;26.33;12.93;;;;;;;2.53;100.00;99100.66;4862186;29;20371;-65
2021/12/20 02:11:19;;;;;;;25.33;13.10;;;;;;;2.34;100.00;99098.91;4845779;29;20405;-64
2021/12/20 02:13:45;;;;;;;28.20;13.10;;;;;;;2.47;100.00;99091.50;4862151;29;20037;-65
2021/12/20 02:16:11;;;;;;;29.83;14.20;;;;;;;2.43;100.00;99079.56;4862323;29;20909;-65
2021/12/20 02:18:37;;;;;;;29.97;13.40;;;;;;;2.45;100.00;99085.53;4845759;29;20037;-65
2021/12/20 02:21:03;;;;;;;30.47;13.60;;;;;;;2.51;100.00;99089.41;4862014;29;20029;-64
2021/12/20 02:23:29;;;;;;;28.30;13.10;;;;;;;2.49;100.00;99092.19;4862133;29;20036;-64
2021/12/20 02:25:55;;;;;;;31.17;15.03;;;;;;;2.49;100.00;99088.72;4862124;29;20273;-65
2021/12/20 02:28:22;;;;;;;30.07;14.23;;;;;;;2.42;100.00;99091.09;4845635;29;20033;-64
2021/12/20 02:38:49;;;;;;;28.73;13.90;;;;;;;2.49;100.00;99083.44;4862040;29;20280;-65
2021/12/20 02:41:21;;;;;;;27.17;13.20;;;;;;;2.53;100.00;99093.56;4861781;29;20283;-64
2021/12/20 02:43:55;;;;;;;25.77;13.20;;;;;;;2.50;100.00;99093.03;4861628;29;20296;-65
2021/12/20 02:48:57;;;;;;;26.50;12.33;;;;;;;2.64;100.00;99094.34;4861699;29;20352;-65
2021/12/20 02:51:26;;;;;;;25.87;11.83;;;;;;;2.53;100.00;99098.00;4845169;29;20647;-65
2021/12/20 02:53:52;;;;;;;26.63;11.77;;;;;;;2.49;100.00;99089.56;4830013;29;20770;-65
2021/12/20 02:56:18;;;;;;;23.70;11.70;;;;;;;2.58;100.00;99084.38;4861607;29;20269;-65
2021/12/20 02:58:44;;;;;;;22.90;11.03;;;;;;;2.59;100.00;99097.41;4861565;29;20324;-65
2021/12/20 03:01:11;;;;;;;23.97;11.93;;;;;;;2.72;100.00;99094.44;4861462;29;20037;-65
2021/12/20 03:03:36;;;;;;;23.83;12.03;;;;;;;2.60;100.00;99099.06;4861233;29;20288;-65
2021/12/20 03:06:23;;;;;;;23.13;11.53;;;;;;;2.61;100.00;99100.75;4861384;29;20273;-65
2021/12/20 03:08:51;;;;;;;22.87;12.17;;;;;;;2.63;100.00;99105.88;4861013;29;20480;-64
2021/12/20 03:11:18;;;;;;;25.67;12.13;;;;;;;2.67;100.00;99092.22;4844358;29;20305;-65
2021/12/20 03:13:47;;;;;;;26.00;12.23;;;;;;;2.79;100.00;99095.47;4861485;29;20272;-65
2021/12/20 03:16:13;;;;;;;25.87;12.63;;;;;;;2.68;100.00;99096.53;4845305;29;20324;-65
2021/12/20 03:18:39;;;;;;;25.60;13.00;;;;;;;2.78;100.00;99105.22;4861305;29;20269;-65
2021/12/20 03:21:05;;;;;;;26.47;12.57;;;;;;;2.53;100.00;99114.66;4844763;29;20037;-65
2021/12/20 03:23:30;;;;;;;24.20;12.33;;;;;;;2.60;100.00;99114.91;4861151;29;20034;-64
2021/12/20 03:25:56;;;;;;;24.93;12.67;;;;;;;2.70;100.00;99112.22;4844398;29;20085;-65
2021/12/20 03:28:22;;;;;;;28.80;13.00;;;;;;;2.75;100.00;99102.06;4861081;29;20036;-65
2021/12/20 03:30:47;;;;;;;30.13;13.23;;;;;;;2.83;100.00;99102.13;4844557;29;20037;-65
2021/12/20 03:33:13;;;;;;;26.77;12.37;;;;;;;2.76;100.00;99106.34;4844514;29;20269;-65
2021/12/20 03:35:39;;;;;;;29.13;13.67;;;;;;;2.67;100.00;99101.94;4844579;29;20033;-65
2021/12/20 03:38:05;;;;;;;29.90;13.27;;;;;;;2.72;100.00;99099.72;4844483;29;20096;-65
2021/12/20 03:40:32;;;;;;;29.53;13.67;;;;;;;2.77;100.00;99093.00;4860863;29;20754;-64
2021/12/20 03:42:59;;;;;;;31.73;14.10;;;;;;;2.75;100.00;99089.69;4860684;29;20033;-65
2021/12/20 03:45:24;;;;;;;35.83;14.57;;;;;;;2.86;100.00;99086.84;4860838;29;20280;-64
2021/12/20 03:47:50;;;;;;;30.20;14.27;;;;;;;2.84;100.00;99094.06;4860557;29;20280;-65
2021/12/20 03:50:17;;;;;;;29.87;14.03;;;;;;;2.89;100.00;99083.88;4844161;29;20029;-65
2021/12/20 03:52:43;;;;;;;28.60;13.33;;;;;;;2.88;100.00;99092.78;4860542;29;20268;-65
2021/12/20 03:55:11;;;;;;;32.17;14.50;;;;;;;2.77;100.00;99089.56;4860512;29;20265;-64
2021/12/20 03:57:37;;;;;;;29.87;13.73;;;;;;;2.82;100.00;99093.41;4860512;29;20279;-64
2021/12/20 04:00:10;;;;;;;32.20;13.77;;;;;;;2.89;100.00;99101.53;4860304;29;20265;-65
2021/12/20 04:02:41;;;;;;;31.80;14.20;;;;;;;2.79;100.00;99093.69;4860476;29;20276;-65
2021/12/20 04:05:07;;;;;;;34.63;14.90;;;;;;;2.91;100.00;99099.56;4860230;29;20280;-66
2021/12/20 04:07:32;;;;;;;30.67;13.77;;;;;;;2.87;100.00;99103.50;4860107;29;20285;-65
2021/12/20 04:09:58;;;;;;;29.53;13.77;;;;;;;3.04;100.00;99102.69;4860272;29;20279;-64
2021/12/20 04:12:23;;;;;;;29.73;13.63;;;;;;;3.01;100.00;99102.97;4843833;29;20108;-65
2021/12/20 04:14:49;;;;;;;30.70;15.13;;;;;;;2.87;100.00;99103.50;4860171;29;20472;-65
2021/12/20 04:17:15;;;;;;;32.07;15.00;;;;;;;2.98;100.00;99108.59;4843582;29;20039;-66
2021/12/20 04:19:40;;;;;;;31.40;14.60;;;;;;;3.01;100.00;99107.44;4843699;29;20112;-65
2021/12/20 04:22:06;;;;;;;30.53;14.47;;;;;;;2.98;100.00;99111.22;4859884;29;20730;-66
2021/12/20 04:24:31;;;;;;;30.77;13.97;;;;;;;2.93;100.00;99118.75;4843509;29;20557;-66
2021/12/20 04:26:57;;;;;;;31.13;14.37;;;;;;;2.97;100.00;99109.56;4860039;29;20025;-65
2021/12/20 04:29:23;;;;;;;31.73;14.97;;;;;;;2.88;100.00;99110.47;4828315;29;20080;-66
2021/12/20 04:31:48;;;;;;;33.90;14.50;;;;;;;2.96;100.00;99107.06;4843444;29;20173;-66
2021/12/20 04:34:15;;;;;;;31.13;14.60;;;;;;;2.97;100.00;99121.94;4859989;29;20057;-65
2021/12/20 04:36:41;;;;;;;35.80;15.77;;;;;;;2.85;100.00;99118.66;4859913;29;20521;-66
2021/12/20 04:39:11;;;;;;;35.93;15.13;;;;;;;2.93;100.00;99124.03;4859841;29;20304;-65
2021/12/20 04:41:37;;;;;;;40.20;16.60;;;;;;;2.85;100.00;99131.84;4843227;29;20033;-65
2021/12/20 04:44:03;;;;;;;38.90;15.80;;;;;;;2.86;100.00;99134.34;4843157;29;20295;-65
2021/12/20 04:46:29;;;;;;;39.27;16.33;;;;;;;2.81;100.00;99133.13;4843335;29;20418;-64
2021/12/20 04:48:54;;;;;;;37.60;16.90;;;;;;;2.82;100.00;99138.25;4859756;29;20040;-65
2021/12/20 04:51:20;;;;;;;33.53;15.97;;;;;;;2.84;100.00;99144.22;4843303;29;20064;-65
2021/12/20 04:53:45;;;;;;;36.30;15.23;;;;;;;2.99;100.00;99141.09;4843204;29;20054;-65
2021/12/20 04:56:11;;;;;;;32.83;14.20;;;;;;;2.86;100.00;99137.00;4843119;29;20559;-65
2021/12/20 04:58:36;;;;;;;31.87;14.47;;;;;;;2.74;100.00;99135.53;4843301;29;20387;-65
2021/12/20 05:01:02;;;;;;;33.87;14.10;;;;;;;2.87;100.00;99140.47;4859541;29;20125;-64
2021/12/20 05:03:29;;;;;;;37.27;15.37;;;;;;;2.84;100.00;99148.66;4842799;29;20101;-65
2021/12/20 05:05:54;;;;;;;32.90;13.23;;;;;;;2.98;100.00;99142.06;4859439;29;20037;-65
2021/12/20 05:08:20;;;;;;;33.83;14.93;;;;;;;2.81;100.00;99148.94;4859320;29;20336;-65
2021/12/20 05:10:45;;;;;;;37.13;14.73;;;;;;;2.97;100.00;99140.41;4859457;29;20030;-65
2021/12/20 05:13:13;;;;;;;33.43;15.23;;;;;;;2.95;100.00;99140.53;4842924;29;20029;-65
2021/12/20 05:15:39;;;;;;;34.13;14.97;;;;;;;2.86;100.00;99142.28;4842613;29;20041;-65
2021/12/20 05:18:08;;;;;;;35.77;15.90;;;;;;;2.90;100.00;99151.53;4842763;29;20272;-65
2021/12/20 05:20:34;;;;;;;36.97;15.80;;;;;;;2.87;100.00;99151.03;4859365;29;20316;-64
2021/12/20 05:23:00;;;;;;;39.77;16.87;;;;;;;3.03;100.00;99148.53;4859194;29;20277;-67
2021/12/20 05:25:26;;;;;;;41.37;17.53;;;;;;;3.03;100.00;99153.81;4842491;29;20276;-65
2021/12/20 05:27:52;;;;;;;39.33;16.07;;;;;;;3.03;100.00;99153.00;4859087;29;20044;-65
2021/12/20 05:30:19;;;;;;;43.33;17.50;;;;;;;2.99;100.00;99152.47;4842809;29;20351;-65
2021/12/20 05:32:45;;;;;;;42.83;17.33;;;;;;;2.99;100.00;99162.22;4843001;29;20277;-65
2021/12/20 05:35:13;;;;;;;42.23;17.83;;;;;;;2.96;100.00;99171.25;4846369;29;20268;-65
2021/12/20 05:37:39;;;;;;;40.93;16.83;;;;;;;3.03;100.00;99174.94;4846311;29;20280;-64
2021/12/20 05:40:07;;;;;;;44.23;18.80;;;;;;;3.05;100.00;99180.91;4862768;29;20281;-65
2021/12/20 05:42:33;;;;;;;41.00;17.53;;;;;;;2.90;100.00;99177.09;4862865;29;20280;-65
2021/12/20 05:44:59;;;;;;;41.27;18.37;;;;;;;2.95;100.00;99177.50;4830745;29;20417;-65
2021/12/20 05:47:25;;;;;;;47.43;19.33;;;;;;;2.99;100.00;99184.16;4862747;29;20029;-66
2021/12/20 05:49:53;;;;;;;40.77;17.57;;;;;;;2.97;100.00;99190.56;4846296;29;20035;-65
2021/12/20 05:52:18;;;;;;;46.23;19.30;;;;;;;2.97;100.00;99185.28;4862748;29;20276;-65
2021/12/20 05:54:45;;;;;;;47.17;18.77;;;;;;;2.88;100.00;99190.44;4846173;29;20277;-66
2021/12/20 05:57:12;;;;;;;46.30;18.53;;;;;;;2.77;100.00;99187.19;4845943;29;20053;-65
2021/12/20 05:59:38;;;;;;;49.53;18.57;;;;;;;2.66;100.00;99193.44;4862473;29;20272;-65
2021/12/20 06:02:04;;;;;;;38.97;16.87;;;;;;;2.64;100.00;99195.44;4845979;29;20351;-65
2021/12/20 06:04:29;;;;;;;46.60;18.23;;;;;;;2.55;100.00;99194.47;4862162;29;20699;-64
2021/12/20 06:06:55;;;;;;;46.03;18.00;;;;;;;2.53;100.00;99200.88;4862441;29;20037;-66
2021/12/20 06:09:21;;;;;;;45.47;17.37;;;;;;;2.55;100.00;99209.47;4862217;29;20050;-66
2021/12/20 06:11:47;;;;;;;56.30;24.23;;;;;;;2.51;100.00;99208.09;4862441;29;20033;-65
2021/12/20 06:14:12;;;;;;;51.23;19.00;;;;;;;2.53;100.00;99209.63;4862162;29;20618;-65
2021/12/20 06:16:38;;;;;;;46.87;17.73;;;;;;;2.48;100.00;99200.47;4862119;29;20121;-68
2021/12/20 06:19:04;;;;;;;47.17;17.50;;;;;;;2.43;100.00;99202.69;4862213;29;20112;-65
2021/12/20 06:21:30;;;;;;;45.80;17.63;;;;;;;2.33;100.00;99209.78;4845881;29;20138;-66
2021/12/20 06:23:55;;;;;;;44.63;18.27;;;;;;;2.28;100.00;99212.88;4830190;29;20317;-66
2021/12/20 06:26:23;;;;;;;41.87;16.37;;;;;;;2.06;100.00;99216.66;4862228;29;20048;-66
2021/12/20 06:28:52;;;;;;;45.43;17.43;;;;;;;1.90;100.00;99211.13;4862042;29;20483;-65
2021/12/20 06:31:19;;;;;;;47.80;18.10;;;;;;;1.88;100.00;99202.50;4862032;29;20272;-66
2021/12/20 06:33:44;;;;;;;54.77;17.77;;;;;;;1.78;100.00;99210.44;4845590;29;20284;-66
2021/12/20 06:36:11;;;;;;;45.37;16.23;;;;;;;1.65;100.00;99214.31;4845576;29;20264;-66
2021/12/20 06:38:44;;;;;;;48.60;18.47;;;;;;;1.61;100.00;99221.66;4829869;29;20045;-66
2021/12/20 06:41:10;;;;;;;52.72;18.27;;;;;;;1.42;100.00;99219.84;4860842;29;20359;-66
2021/12/20 06:43:36;;;;;;;48.13;17.37;;;;;;;1.30;100.00;99222.72;4826625;29;20037;-67
2021/12/20 06:46:01;;;;;;;48.57;18.00;;;;;;;1.13;100.00;99226.84;4829186;29;20292;-65
2021/12/20 06:48:28;;;;;;;55.67;19.03;;;;;;;1.07;100.00;99232.63;4826844;29;20037;-67
2021/12/20 06:50:54;;;;;;;56.87;18.40;;;;;;;0.98;100.00;99236.06;4811711;29;20041;-70
2021/12/20 06:53:20;;;;;;;51.47;17.50;;;;;;;0.93;100.00;99235.63;4826617;29;20285;-68
2021/12/20 06:55:46;;;;;;;52.50;18.90;;;;;;;0.96;100.00;99254.63;4833127;29;20048;-65
2021/12/20 06:58:12;;;;;;;53.33;18.27;;;;;;;0.97;100.00;99244.94;4857162;29;20105;-65
2021/12/20 07:00:37;;;;;;;54.37;18.73;;;;;;;1.00;100.00;99242.88;4875531;29;20309;-66
2021/12/20 07:03:03;;;;;;;57.03;19.37;;;;;;;0.99;100.00;99243.00;4860940;29;20104;-66
2021/12/20 07:05:29;;;;;;;75.03;20.90;;;;;;;1.03;100.00;99250.50;4861196;29;20035;-67
2021/12/20 07:07:54;;;;;;;59.70;19.90;;;;;;;1.01;100.00;99248.97;4875340;29;20057;-64
2021/12/20 07:10:20;;;;;;;71.43;23.80;;;;;;;0.95;100.00;99245.06;4861020;29;20108;-68
2021/12/20 07:12:46;;;;;;;64.33;20.63;;;;;;;0.94;100.00;99245.19;4860957;29;20093;-65
2021/12/20 07:15:13;;;;;;;64.77;19.57;;;;;;;1.00;100.00;99248.13;4861013;29;20021;-64
2021/12/20 07:17:41;;;;;;;63.20;19.53;;;;;;;1.05;100.00;99245.09;4860959;29;20038;-67
2021/12/20 07:20:08;;;;;;;64.00;18.80;;;;;;;0.95;100.00;99245.06;4860970;29;20731;-65
2021/12/20 07:22:34;;;;;;;63.90;19.13;;;;;;;0.95;100.00;99236.34;4860746;29;20313;-65
2021/12/20 07:25:00;;;;;;;63.50;19.90;;;;;;;1.12;100.00;99238.34;4860377;29;20297;-64
2021/12/20 07:27:25;;;;;;;63.53;21.53;;;;;;;1.16;100.00;99238.88;4860372;29;20284;-67
2021/12/20 07:29:51;;;;;;;62.07;20.67;;;;;;;1.18;100.00;99244.84;4842275;29;20484;-66
2021/12/20 07:32:16;;;;;;;55.57;20.97;;;;;;;1.19;100.00;99243.88;4860846;29;20054;-67
2021/12/20 07:34:42;;;;;;;59.17;21.47;;;;;;;1.21;100.00;99252.50;4860631;29;20497;-67
2021/12/20 07:37:07;;;;;;;65.90;24.43;;;;;;;1.25;100.00;99260.00;4844014;29;20452;-71
2021/12/20 07:39:33;;;;;;;65.77;20.93;;;;;;;1.13;100.00;99262.88;4844156;29;20052;-65
2021/12/20 07:42:00;;;;;;;53.80;18.83;;;;;;;1.13;100.00;99250.53;4860637;29;20045;-71
2021/12/20 07:44:26;;;;;;;58.07;19.97;;;;;;;1.07;100.00;99256.31;4844706;29;20045;-74
2021/12/20 07:46:52;;;;;;;59.83;20.13;;;;;;;1.15;100.00;99263.56;4829173;29;20714;-64
2021/12/20 07:49:18;;;;;;;57.33;20.53;;;;;;;1.18;100.00;99268.53;4843687;29;20333;-64
2021/12/20 07:51:44;;;;;;;52.70;18.67;;;;;;;1.15;100.00;99271.47;4843988;29;20778;-63
2021/12/20 07:54:09;;;;;;;65.60;21.80;;;;;;;1.13;100.00;99270.75;4828654;29;20409;-66
2021/12/20 07:56:35;;;;;;;54.50;20.00;;;;;;;1.04;100.00;99275.81;4859513;29;20038;-65
2021/12/20 07:59:00;;;;;;;54.03;19.77;;;;;;;1.08;100.00;99271.16;4859332;29;20169;-66
2021/12/20 08:01:27;;;;;;;50.50;18.80;;;;;;;0.90;100.00;99270.94;4858197;29;20029;-65
2021/12/20 08:03:52;;;;;;;49.20;19.00;;;;;;;0.94;100.00;99271.50;4854253;29;20555;-66
2021/12/20 08:06:18;;;;;;;52.93;18.10;;;;;;;0.87;100.00;99275.63;4838169;29;20301;-66
2021/12/20 08:08:44;;;;;;;57.50;18.77;;;;;;;1.15;100.00;99271.47;4837665;29;20041;-66
2021/12/20 08:11:10;;;;;;;53.60;20.83;;;;;;;0.86;100.00;99279.22;4829258;29;20030;-65
2021/12/20 08:13:44;;;;;;;51.47;20.80;;;;;;;0.88;100.00;99279.94;4841521;29;20301;-66
2021/12/20 08:16:11;;;;;;;62.33;22.17;;;;;;;1.23;100.00;99274.25;4840247;29;20543;-65
2021/12/20 08:18:38;;;;;;;53.00;19.57;;;;;;;1.64;100.00;99274.06;4840153;29;20298;-68
2021/12/20 08:21:03;;;;;;;45.10;16.70;;;;;;;1.73;100.00;99275.06;4841397;29;20446;-69
2021/12/20 08:23:29;;;;;;;37.43;15.10;;;;;;;1.97;100.00;99277.25;4824951;29;20285;-64
2021/12/20 08:25:54;;;;;;;32.50;13.93;;;;;;;2.11;100.00;99279.50;4836896;29;20034;-65
2021/12/20 08:28:20;;;;;;;25.63;11.20;;;;;;;2.33;100.00;99273.91;4840963;29;20041;-64
2021/12/20 08:30:45;;;;;;;22.00;10.13;;;;;;;2.40;100.00;99284.75;4841003;29;20097;-64
2021/12/20 08:33:12;;;;;;;18.87;9.50;;;;;;;2.37;100.00;99277.13;4840980;29;20551;-64
2021/12/20 08:35:38;;;;;;;14.57;8.27;;;;;;;2.45;100.00;99277.22;4840994;29;20029;-63
2021/12/20 08:38:03;;;;;;;13.33;7.47;;;;;;;2.29;100.00;99284.91;4840987;29;20635;-64
2021/12/20 08:40:29;;;;;;;16.00;7.57;;;;;;;2.43;100.00;99285.28;4840617;29;20042;-64
2021/12/20 08:42:54;;;;;;;16.13;8.20;;;;;;;2.25;100.00;99283.50;4840986;29;20121;-63
2021/12/20 08:45:20;;;;;;;15.43;8.60;;;;;;;2.27;100.00;99286.84;4840581;29;20093;-63
2021/12/20 08:47:46;;;;;;;15.63;7.63;;;;;;;2.33;100.00;99291.53;4840796;29;20037;-64
2021/12/20 08:50:15;;;;;;;13.83;7.00;;;;;;;2.68;100.00;99293.56;4839685;29;20083;-65
2021/12/20 08:52:41;;;;;;;15.00;7.07;;;;;;;2.65;100.00;99292.06;4840959;29;20075;-63
2021/12/20 08:55:08;;;;;;;14.10;7.57;;;;;;;2.48;100.00;99284.88;4840616;29;20265;-63
2021/12/20 08:57:33;;;;;;;13.03;7.07;;;;;;;2.69;100.00;99297.88;4840931;29;20041;-63
2021/12/20 09:00:03;;;;;;;13.00;7.13;;;;;;;2.55;100.00;99297.34;4840676;29;20282;-64
2021/12/20 09:02:29;;;;;;;15.37;6.73;;;;;;;2.64;100.00;99311.50;4841019;29;20026;-64
2021/12/20 09:04:54;;;;;;;11.97;7.00;;;;;;;2.70;100.00;99312.72;4840547;29;20293;-66
2021/12/20 09:07:20;;;;;;;13.13;7.50;;;;;;;2.76;100.00;99307.72;4840079;29;20065;-63
2021/12/20 09:09:47;;;;;;;13.10;7.00;;;;;;;2.67;100.00;99311.19;4858780;29;20033;-64
2021/12/20 09:12:18;;;;;;;13.83;7.20;;;;;;;2.66;100.00;99311.34;4842451;29;20038;-64
2021/12/20 09:14:44;;;;;;;13.40;7.80;;;;;;;2.48;100.00;99316.53;4859047;29;20651;-64
2021/12/20 09:17:09;;;;;;;12.37;6.37;;;;;;;2.66;100.00;99324.53;4842182;29;20321;-62
2021/12/20 09:19:36;;;;;;;11.10;6.17;;;;;;;2.60;100.00;99325.94;4858868;29;20285;-64
2021/12/20 09:22:05;;;;;;;12.03;6.03;;;;;;;2.50;100.00;99325.13;4858826;29;20033;-64
2021/12/20 09:24:33;;;;;;;12.17;6.27;;;;;;;2.73;100.00;99330.94;4842650;29;20348;-69
2021/12/20 09:26:58;;;;;;;12.57;5.83;;;;;;;2.81;100.00;99323.13;4858940;29;20607;-69
2021/12/20 09:29:23;;;;;;;9.93;5.63;;;;;;;2.84;100.00;99321.03;4858895;29;20306;-63
2021/12/20 09:31:49;;;;;;;11.83;6.53;;;;;;;2.99;100.00;99324.06;4858861;29;20121;-63
2021/12/20 09:34:15;;;;;;;9.73;4.93;;;;;;;2.94;100.00;99330.72;4858719;29;20514;-64
2021/12/20 09:36:40;;;;;;;9.57;5.37;;;;;;;2.98;100.00;99324.19;4858810;29;20495;-63
2021/12/20 09:39:10;;;;;;;10.63;6.10;;;;;;;2.83;100.00;99324.66;4858770;29;20038;-64
2021/12/20 09:44:06;;;;;;;11.20;5.67;;;;;;;4.44;100.00;99304.66;4858354;29;20284;-65
2021/12/20 09:46:32;;;;;;;9.73;5.33;;;;;;;3.50;100.00;99315.63;4858704;29;20734;-65
2021/12/20 09:48:58;;;;;;;9.17;5.90;;;;;;;3.64;100.00;99323.06;4858719;29;20328;-62
2021/12/20 09:51:24;;;;;;;10.93;5.90;;;;;;;3.63;100.00;99317.91;4858695;29;20280;-64
2021/12/20 09:53:49;;;;;;;9.67;5.67;;;;;;;4.08;100.00;99304.69;4858593;29;20033;-62
2021/12/20 09:56:17;;;;;;;11.90;4.90;;;;;;;3.30;100.00;99322.00;4858679;29;20281;-62
2021/12/20 09:58:43;;;;;;;9.03;5.27;;;;;;;3.23;100.00;99313.00;4858571;29;20132;-64
2021/12/20 10:01:13;;;;;;;10.27;5.07;;;;;;;4.03;100.00;99314.88;4842115;29;20359;-66
2021/12/20 10:03:39;;;;;;;10.17;5.40;;;;;;;4.90;100.00;99311.44;4858619;29;20040;-65
2021/12/20 10:06:05;;;;;;;9.53;4.80;;;;;;;5.43;100.00;99308.56;4858657;29;20762;-65
2021/12/20 10:08:36;;;;;;;8.40;4.53;;;;;;;4.53;100.00;99309.03;4839022;29;20289;-63
2021/12/20 10:11:08;;;;;;;9.43;4.83;;;;;;;4.30;100.00;99308.66;4856626;29;20475;-63
2021/12/20 10:13:36;;;;;;;7.93;4.40;;;;;;;4.53;100.00;99299.28;4839734;29;20285;-64
2021/12/20 10:16:06;;;;;;;8.13;4.80;;;;;;;4.82;100.00;99303.44;4847428;29;20269;-63
2021/12/20 10:18:33;;;;;;;8.73;4.90;;;;;;;6.54;100.00;99304.66;4832219;29;20776;-65
2021/12/20 10:21:01;;;;;;;6.93;4.10;;;;;;;5.73;100.00;99315.13;4838833;29;20355;-65
2021/12/20 10:23:32;;;;;;;7.83;4.10;;;;;;;6.22;100.00;99302.00;4845327;29;20283;-65
2021/12/20 10:26:10;;;;;;;9.60;5.20;;;;;;;6.61;100.00;99296.84;4862317;29;20101;-66
2021/12/20 10:28:36;;;;;;;8.57;4.67;;;;;;;5.87;100.00;99295.13;4845604;29;20644;-64
2021/12/20 10:31:18;;;;;;;8.43;4.37;;;;;;;6.20;100.00;99306.66;4862156;29;20036;-64
2021/12/20 10:34:18;;;;;;;7.97;4.50;;;;;;;6.10;100.00;99304.16;4861993;29;20025;-65
2021/12/20 10:36:55;;;;;;;8.40;4.33;;;;;;;7.47;100.00;99310.28;4768540;30;20135;-66
2021/12/20 10:39:45;;;;;;;6.20;3.90;;;;;;;7.59;100.00;99304.41;4768146;30;20052;-65
2021/12/20 10:42:19;;;;;;;7.43;3.90;;;;;;;5.87;100.00;99303.09;4768804;30;20126;-64
2021/12/20 10:45:17;;;;;;;7.47;4.50;;;;;;;6.30;100.00;99299.34;4768852;30;20046;-66
2021/12/20 10:47:43;;;;;;;7.07;3.90;;;;;;;5.88;100.00;99295.00;4754454;30;20081;-66
2021/12/20 10:50:29;;;;;;;7.23;3.87;;;;;;;5.70;100.00;99291.59;4768516;30;20065;-68
2021/12/20 10:53:15;;;;;;;8.03;4.00;;;;;;;6.32;100.00;99303.50;4768570;30;20097;-69
2021/12/20 10:55:48;;;;;;;9.80;3.90;;;;;;;6.39;100.00;99301.84;4768595;30;20031;-67
2021/12/20 10:58:22;;;;;;;5.63;3.40;;;;;;;7.08;100.00;99308.41;4768448;30;20172;-68
2021/12/20 11:01:07;;;;;;;5.77;3.30;;;;;;;6.35;100.00;99304.97;4768364;30;20040;-67
2021/12/20 11:03:38;;;;;;;6.87;3.90;;;;;;;7.20;100.00;99303.56;4768345;30;20572;-68
2021/12/20 11:06:24;;;;;;;7.27;3.57;;;;;;;6.74;100.00;99300.66;4768366;30;20529;-66
2021/12/20 11:09:05;;;;;;;8.33;3.87;;;;;;;5.98;100.00;99294.84;4767921;30;20059;-68
2021/12/20 11:11:33;;;;;;;6.43;3.70;;;;;;;5.79;100.00;99306.53;4781172;29;20053;-68
2021/12/20 11:14:00;;;;;;;9.03;3.70;;;;;;;5.84;100.00;99304.22;4839081;29;20026;-66
2021/12/20 11:16:28;;;;;;;6.60;3.43;;;;;;;6.74;100.00;99295.34;4842355;29;20069;-68
2021/12/20 11:19:06;;;;;;;6.67;3.50;;;;;;;7.01;100.00;99295.97;4842671;29;20109;-70
2021/12/20 11:21:33;;;;;;;7.73;3.47;;;;;;;5.16;100.00;99298.19;4839513;29;20057;-69
2021/12/20 11:23:59;;;;;;;7.23;3.70;;;;;;;5.16;100.00;99301.66;4826150;29;20038;-69
2021/12/20 11:26:29;;;;;;;7.03;3.73;;;;;;;5.65;100.00;99296.56;4839701;29;20040;-67
2021/12/20 11:28:56;;;;;;;6.87;3.87;;;;;;;6.91;100.00;99293.50;4842171;29;20030;-66
2021/12/20 11:31:23;;;;;;;6.40;3.43;;;;;;;6.13;100.00;99287.88;4825023;29;20502;-68
2021/12/20 11:33:50;;;;;;;7.23;3.80;;;;;;;6.21;100.00;99295.03;4820451;29;20030;-67
2021/12/20 11:36:18;;;;;;;7.83;3.90;;;;;;;5.59;100.00;99287.44;4819435;29;20041;-67
2021/12/20 11:38:44;;;;;;;9.60;4.10;;;;;;;5.50;100.00;99280.44;4807950;29;20034;-67
2021/12/20 11:41:10;;;;;;;6.13;3.40;;;;;;;6.47;100.00;99287.72;4831151;29;20037;-67
2021/12/20 11:43:35;;;;;;;6.97;3.33;;;;;;;6.46;100.00;99284.25;4835610;29;20037;-67